createdAt,value
2017-09-01T00:00:42.515Z,100.0
2017-09-01T00:01:43.887Z,100.0
2017-09-01T00:02:45.298Z,100.0
2017-09-01T00:03:46.665Z,100.0
2017-09-01T00:04:48.080Z,100.0
2017-09-01T00:05:49.446Z,100.0
2017-09-01T00:06:50.850Z,100.0
2017-09-01T00:07:52.230Z,100.0
2017-09-01T00:08:53.632Z,100.0
2017-09-01T00:09:55.028Z,100.0
2017-09-01T00:10:56.416Z,100.0
2017-09-01T00:11:57.787Z,100.0
2017-09-01T00:12:59.208Z,100.0
2017-09-01T00:14:00.573Z,100.0
2017-09-01T00:15:01.985Z,100.0
2017-09-01T00:16:03.347Z,100.0
2017-09-01T00:17:04.758Z,100.0
2017-09-01T00:18:06.141Z,100.0
2017-09-01T00:19:07.538Z,100.0
2017-09-01T00:20:08.912Z,100.0
2017-09-01T00:21:10.318Z,100.0
2017-09-01T00:22:11.687Z,100.0
2017-09-01T00:23:13.095Z,100.0
2017-09-01T00:24:14.466Z,100.0
2017-09-01T00:25:15.874Z,100.0
2017-09-01T00:26:17.243Z,100.0
2017-09-01T00:27:18.653Z,100.0
2017-09-01T00:28:20.022Z,100.0
2017-09-01T00:29:21.436Z,100.0
2017-09-01T00:30:22.815Z,100.0
2017-09-01T00:31:24.212Z,100.0
2017-09-01T00:32:25.586Z,100.0
2017-09-01T00:33:26.991Z,100.0
2017-09-01T00:34:28.364Z,100.0
2017-09-01T00:35:29.772Z,100.0
2017-09-01T00:36:31.150Z,100.0
2017-09-01T00:37:32.552Z,100.0
2017-09-01T00:38:33.924Z,100.0
2017-09-01T00:39:35.332Z,100.0
2017-09-01T00:40:36.709Z,100.0
2017-09-01T00:41:38.111Z,100.0
2017-09-01T00:42:39.481Z,100.0
2017-09-01T00:43:40.892Z,100.0
2017-09-01T00:44:42.263Z,100.0
2017-09-01T00:45:43.670Z,100.0
2017-09-01T00:46:45.051Z,100.0
2017-09-01T00:47:46.450Z,100.0
2017-09-01T00:48:47.823Z,100.0
2017-09-01T00:49:49.233Z,100.0
2017-09-01T00:50:50.617Z,100.0
2017-09-01T00:51:52.011Z,100.0
2017-09-01T00:52:53.381Z,100.0
2017-09-01T00:53:54.789Z,100.0
2017-09-01T00:54:56.160Z,100.0
2017-09-01T00:55:57.578Z,100.0
2017-09-01T00:56:58.949Z,100.0
2017-09-01T00:58:00.350Z,100.0
2017-09-01T00:59:01.749Z,100.0
2017-09-01T01:00:03.128Z,100.0
2017-09-01T01:01:04.503Z,100.0
2017-09-01T01:02:05.913Z,100.0
2017-09-01T01:03:07.282Z,100.0
2017-09-01T01:04:08.687Z,100.0
2017-09-01T01:05:10.061Z,100.0
2017-09-01T01:06:11.463Z,100.0
2017-09-01T01:07:12.842Z,100.0
2017-09-01T01:08:14.247Z,100.0
2017-09-01T01:09:15.617Z,100.0
2017-09-01T01:10:17.031Z,100.0
2017-09-01T01:11:18.402Z,100.0
2017-09-01T01:12:19.815Z,100.0
2017-09-01T01:13:21.191Z,100.0
2017-09-01T01:14:22.596Z,100.0
2017-09-01T01:15:23.970Z,100.0
2017-09-01T01:16:25.367Z,100.0
2017-09-01T01:17:26.750Z,100.0
2017-09-01T01:18:28.157Z,100.0
2017-09-01T01:19:29.526Z,100.0
2017-09-01T01:20:30.925Z,100.0
2017-09-01T01:21:32.297Z,100.0
2017-09-01T01:22:33.710Z,100.0
2017-09-01T01:23:35.076Z,100.0
2017-09-01T01:24:36.512Z,100.0
2017-09-01T01:25:37.857Z,100.0
2017-09-01T01:26:39.280Z,100.0
2017-09-01T01:27:40.637Z,100.0
2017-09-01T01:28:42.047Z,100.0
2017-09-01T01:29:43.420Z,100.0
2017-09-01T01:30:44.823Z,100.0
2017-09-01T01:31:46.195Z,100.0
2017-09-01T01:32:47.602Z,100.0
2017-09-01T01:33:48.969Z,100.0
2017-09-01T01:34:50.393Z,100.0
2017-09-01T01:35:51.774Z,100.0
2017-09-01T01:36:53.169Z,100.0
2017-09-01T01:37:54.536Z,100.0
2017-09-01T01:38:55.947Z,100.0
2017-09-01T01:39:57.320Z,100.0
2017-09-01T01:40:58.726Z,100.0
2017-09-01T01:42:00.095Z,100.0
2017-09-01T01:43:01.503Z,100.0
2017-09-01T01:44:02.895Z,100.0
2017-09-01T01:45:04.273Z,100.0
2017-09-01T01:46:05.696Z,100.0
2017-09-01T01:47:07.170Z,100.0
2017-09-01T01:48:08.546Z,100.0
2017-09-01T01:49:09.951Z,100.0
2017-09-01T01:50:11.332Z,100.0
2017-09-01T01:51:12.726Z,100.0
2017-09-01T01:52:14.106Z,100.0
2017-09-01T01:53:15.501Z,100.0
2017-09-01T01:54:16.880Z,100.0
2017-09-01T01:55:18.277Z,100.0
2017-09-01T01:56:19.652Z,100.0
2017-09-01T01:57:21.062Z,100.0
2017-09-01T01:58:22.438Z,100.0
2017-09-01T01:59:23.842Z,100.0
2017-09-01T02:00:25.225Z,100.0
2017-09-01T02:01:26.624Z,100.0
2017-09-01T02:02:28.003Z,100.0
2017-09-01T02:03:29.394Z,100.0
2017-09-01T02:04:30.766Z,100.0
2017-09-01T02:05:32.181Z,100.0
2017-09-01T02:06:33.556Z,100.0
2017-09-01T02:07:34.973Z,100.0
2017-09-01T02:08:36.337Z,100.0
2017-09-01T02:09:37.748Z,100.0
2017-09-01T02:10:39.121Z,100.0
2017-09-01T02:11:40.521Z,100.0
2017-09-01T02:12:41.920Z,100.0
2017-09-01T02:13:43.299Z,100.0
2017-09-01T02:14:44.670Z,100.0
2017-09-01T02:15:46.078Z,100.0
2017-09-01T02:16:47.450Z,100.0
2017-09-01T02:17:48.858Z,100.0
2017-09-01T02:18:50.233Z,100.0
2017-09-01T02:19:51.663Z,100.0
2017-09-01T02:20:53.040Z,100.0
2017-09-01T02:21:54.519Z,100.0
2017-09-01T02:22:55.893Z,100.0
2017-09-01T02:23:57.298Z,100.0
2017-09-01T02:24:58.669Z,100.0
2017-09-01T02:26:00.079Z,100.0
2017-09-01T02:27:01.463Z,100.0
2017-09-01T02:28:02.862Z,100.0
2017-09-01T02:29:04.236Z,100.0
2017-09-01T02:30:05.639Z,100.0
2017-09-01T02:31:07.008Z,100.0
2017-09-01T02:32:08.461Z,100.0
2017-09-01T02:33:09.832Z,100.0
2017-09-01T02:34:11.300Z,100.0
2017-09-01T02:35:12.666Z,100.0
2017-09-01T02:36:14.077Z,100.0
2017-09-01T02:37:15.448Z,100.0
2017-09-01T02:38:16.859Z,100.0
2017-09-01T02:39:18.232Z,100.0
2017-09-01T02:40:19.639Z,100.0
2017-09-01T02:41:21.015Z,100.0
2017-09-01T02:42:22.420Z,100.0
2017-09-01T02:43:23.789Z,100.0
2017-09-01T02:44:25.198Z,100.0
2017-09-01T02:45:26.571Z,100.0
2017-09-01T02:46:27.977Z,100.0
2017-09-01T02:47:29.350Z,100.0
2017-09-01T02:48:30.758Z,100.0
2017-09-01T02:49:32.129Z,100.0
2017-09-01T02:50:33.541Z,100.0
2017-09-01T02:51:34.908Z,100.0
2017-09-01T02:52:36.318Z,100.0
2017-09-01T02:53:37.689Z,100.0
2017-09-01T02:54:39.098Z,100.0
2017-09-01T02:55:40.466Z,100.0
2017-09-01T02:56:41.870Z,100.0
2017-09-01T02:57:43.247Z,100.0
2017-09-01T02:58:44.656Z,100.0
2017-09-01T02:59:46.085Z,100.0
2017-09-01T03:00:47.536Z,100.0
2017-09-01T03:01:48.909Z,100.0
2017-09-01T03:02:50.316Z,100.0
2017-09-01T03:03:51.689Z,100.0
2017-09-01T03:04:53.099Z,100.0
2017-09-01T03:05:54.470Z,100.0
2017-09-01T03:06:55.873Z,100.0
2017-09-01T03:07:57.255Z,100.0
2017-09-01T03:08:58.656Z,100.0
2017-09-01T03:10:00.028Z,100.0
2017-09-01T03:11:01.434Z,100.0
2017-09-01T03:12:02.814Z,100.0
2017-09-01T03:13:04.219Z,100.0
2017-09-01T03:14:05.590Z,100.0
2017-09-01T03:15:06.994Z,100.0
2017-09-01T03:16:08.364Z,100.0
2017-09-01T03:17:09.785Z,100.0
2017-09-01T03:18:11.154Z,100.0
2017-09-01T03:19:12.566Z,100.0
2017-09-01T03:20:13.953Z,100.0
2017-09-01T03:21:15.436Z,100.0
2017-09-01T03:22:16.805Z,100.0
2017-09-01T03:23:18.213Z,100.0
2017-09-01T03:24:19.585Z,100.0
2017-09-01T03:25:20.997Z,100.0
2017-09-01T03:26:22.370Z,100.0
2017-09-01T03:27:23.775Z,100.0
2017-09-01T03:28:25.157Z,100.0
2017-09-01T03:29:26.557Z,100.0
2017-09-01T03:30:27.933Z,100.0
2017-09-01T03:31:29.334Z,100.0
2017-09-01T03:32:30.714Z,100.0
2017-09-01T03:33:32.157Z,100.0
2017-09-01T03:34:33.533Z,100.0
2017-09-01T03:35:34.995Z,100.0
2017-09-01T03:36:36.378Z,100.0
2017-09-01T03:37:37.793Z,100.0
2017-09-01T03:38:39.158Z,100.0
2017-09-01T03:39:40.561Z,100.0
2017-09-01T03:40:41.928Z,100.0
2017-09-01T03:41:43.336Z,100.0
2017-09-01T03:42:44.808Z,100.0
2017-09-01T03:43:46.217Z,100.0
2017-09-01T03:44:47.588Z,100.0
2017-09-01T03:45:49.040Z,100.0
2017-09-01T03:46:50.415Z,100.0
2017-09-01T03:47:51.879Z,100.0
2017-09-01T03:48:53.253Z,100.0
2017-09-01T03:49:54.730Z,100.0
2017-09-01T03:50:56.096Z,100.0
2017-09-01T03:51:58.569Z,100.0
2017-09-01T03:53:00.156Z,100.0
2017-09-01T03:54:01.863Z,100.0
2017-09-01T03:55:03.221Z,100.0
2017-09-01T03:56:04.639Z,100.0
2017-09-01T03:57:06.007Z,100.0
2017-09-01T03:58:07.433Z,100.0
2017-09-01T03:59:08.964Z,100.0
2017-09-01T04:00:10.540Z,100.0
2017-09-01T04:01:11.929Z,100.0
2017-09-01T04:02:13.401Z,100.0
2017-09-01T04:03:14.765Z,100.0
2017-09-01T04:04:16.165Z,100.0
2017-09-01T04:05:17.821Z,100.0
2017-09-01T04:06:19.251Z,100.0
2017-09-01T04:07:20.847Z,100.0
2017-09-01T04:08:22.256Z,100.0
2017-09-01T04:09:23.638Z,100.0
2017-09-01T04:10:25.116Z,100.0
2017-09-01T04:11:26.496Z,100.0
2017-09-01T04:12:27.913Z,100.0
2017-09-01T04:13:29.297Z,100.0
2017-09-01T04:14:30.783Z,100.0
2017-09-01T04:15:32.150Z,100.0
2017-09-01T04:16:33.556Z,100.0
2017-09-01T04:17:34.928Z,100.0
2017-09-01T04:18:36.339Z,100.0
2017-09-01T04:19:37.708Z,100.0
2017-09-01T04:20:39.152Z,100.0
2017-09-01T04:21:40.524Z,100.0
2017-09-01T04:22:42.016Z,100.0
2017-09-01T04:23:43.380Z,100.0
2017-09-01T04:24:44.787Z,100.0
2017-09-01T04:25:46.150Z,100.0
2017-09-01T04:26:47.563Z,100.0
2017-09-01T04:27:48.957Z,100.0
2017-09-01T04:28:50.338Z,100.0
2017-09-01T04:29:51.712Z,100.0
2017-09-01T04:30:53.121Z,100.0
2017-09-01T04:31:54.499Z,100.0
2017-09-01T04:32:55.895Z,100.0
2017-09-01T04:33:57.271Z,100.0
2017-09-01T04:34:58.678Z,100.0
2017-09-01T04:36:00.055Z,100.0
2017-09-01T04:37:01.463Z,100.0
2017-09-01T04:38:02.861Z,100.0
2017-09-01T04:39:04.244Z,100.0
2017-09-01T04:40:05.616Z,100.0
2017-09-01T04:41:07.090Z,100.0
2017-09-01T04:42:08.470Z,100.0
2017-09-01T04:43:09.903Z,100.0
2017-09-01T04:44:11.285Z,100.0
2017-09-01T04:45:12.682Z,100.0
2017-09-01T04:46:14.074Z,100.0
2017-09-01T04:47:15.565Z,100.0
2017-09-01T04:48:16.995Z,100.0
2017-09-01T04:49:18.446Z,100.0
2017-09-01T04:50:19.832Z,100.0
2017-09-01T04:51:21.242Z,100.0
2017-09-01T04:52:22.709Z,100.0
2017-09-01T04:53:24.106Z,100.0
2017-09-01T04:54:25.484Z,100.0
2017-09-01T04:55:26.890Z,100.0
2017-09-01T04:56:28.260Z,100.0
2017-09-01T04:57:29.666Z,100.0
2017-09-01T04:58:31.066Z,100.0
2017-09-01T04:59:32.547Z,100.0
2017-09-01T05:00:33.925Z,100.0
2017-09-01T05:01:35.350Z,100.0
2017-09-01T05:02:36.717Z,100.0
2017-09-01T05:03:38.111Z,100.0
2017-09-01T05:04:39.487Z,100.0
2017-09-01T05:05:40.886Z,100.0
2017-09-01T05:06:42.263Z,100.0
2017-09-01T05:07:43.666Z,100.0
2017-09-01T05:08:45.037Z,100.0
2017-09-01T05:09:46.449Z,100.0
2017-09-01T05:10:47.834Z,100.0
2017-09-01T05:11:49.227Z,100.0
2017-09-01T05:12:50.605Z,100.0
2017-09-01T05:13:52.007Z,100.0
2017-09-01T05:14:53.388Z,100.0
2017-09-01T05:15:54.785Z,100.0
2017-09-01T05:16:56.162Z,100.0
2017-09-01T05:17:57.618Z,100.0
2017-09-01T05:18:58.983Z,100.0
2017-09-01T05:20:00.485Z,100.0
2017-09-01T05:21:01.914Z,100.0
2017-09-01T05:22:03.339Z,100.0
2017-09-01T05:23:04.726Z,100.0
2017-09-01T05:24:06.294Z,100.0
2017-09-01T05:25:07.705Z,100.0
2017-09-01T05:26:09.241Z,100.0
2017-09-01T05:27:10.638Z,100.0
2017-09-01T05:28:12.165Z,100.0
2017-09-01T05:29:13.597Z,100.0
2017-09-01T05:30:15.062Z,100.0
2017-09-01T05:31:16.442Z,100.0
2017-09-01T05:32:17.841Z,100.0
2017-09-01T05:33:19.255Z,100.0
2017-09-01T05:34:20.773Z,100.0
2017-09-01T05:35:22.167Z,100.0
2017-09-01T05:36:23.608Z,100.0
2017-09-01T05:37:24.992Z,100.0
2017-09-01T05:38:26.391Z,100.0
2017-09-01T05:39:27.846Z,100.0
2017-09-01T05:40:29.331Z,100.0
2017-09-01T05:41:30.707Z,100.0
2017-09-01T05:42:32.149Z,100.0
2017-09-01T05:43:33.525Z,100.0
2017-09-01T05:44:34.937Z,100.0
2017-09-01T05:45:36.330Z,100.0
2017-09-01T05:46:37.860Z,100.0
2017-09-01T05:47:39.279Z,100.0
2017-09-01T05:48:40.698Z,100.0
2017-09-01T05:49:42.071Z,100.0
2017-09-01T05:50:43.475Z,100.0
2017-09-01T05:51:44.842Z,100.0
2017-09-01T05:52:46.304Z,100.0
2017-09-01T05:53:47.688Z,100.0
2017-09-01T05:54:49.134Z,100.0
2017-09-01T05:55:50.506Z,100.0
2017-09-01T05:56:51.914Z,100.0
2017-09-01T05:57:53.305Z,100.0
2017-09-01T05:58:54.699Z,100.0
2017-09-01T05:59:56.074Z,100.0
2017-09-01T06:00:57.479Z,100.0
2017-09-01T06:01:58.856Z,100.0
2017-09-01T06:03:00.257Z,100.0
2017-09-01T06:04:01.666Z,100.0
2017-09-01T06:05:03.170Z,100.0
2017-09-01T06:06:04.538Z,100.0
2017-09-01T06:07:05.924Z,100.0
2017-09-01T06:08:07.306Z,100.0
2017-09-01T06:09:08.802Z,100.0
2017-09-01T06:10:10.243Z,100.0
2017-09-01T06:11:11.715Z,100.0
2017-09-01T06:12:13.093Z,100.0
2017-09-01T06:13:14.579Z,100.0
2017-09-01T06:14:15.955Z,100.0
2017-09-01T06:15:17.475Z,100.0
2017-09-01T06:16:18.851Z,100.0
2017-09-01T06:17:20.232Z,100.0
2017-09-01T06:18:21.661Z,100.0
2017-09-01T06:19:23.140Z,100.0
2017-09-01T06:20:24.491Z,100.0
2017-09-01T06:21:25.878Z,100.0
2017-09-01T06:22:27.258Z,100.0
2017-09-01T06:23:28.666Z,100.0
2017-09-01T06:24:30.048Z,100.0
2017-09-01T06:25:31.502Z,100.0
2017-09-01T06:26:32.977Z,100.0
2017-09-01T06:27:34.428Z,100.0
2017-09-01T06:28:35.824Z,100.0
2017-09-01T06:29:37.311Z,100.0
2017-09-01T06:30:38.689Z,100.0
2017-09-01T06:31:40.083Z,100.0
2017-09-01T06:32:41.503Z,100.0
2017-09-01T06:33:42.977Z,100.0
2017-09-01T06:34:44.352Z,100.0
2017-09-01T06:35:45.864Z,100.0
2017-09-01T06:36:47.293Z,100.0
2017-09-01T06:37:48.735Z,100.0
2017-09-01T06:38:50.111Z,100.0
2017-09-01T06:39:51.545Z,100.0
2017-09-01T06:40:52.937Z,100.0
2017-09-01T06:41:54.406Z,100.0
2017-09-01T06:42:55.820Z,100.0
2017-09-01T06:43:57.279Z,100.0
2017-09-01T06:44:58.658Z,100.0
2017-09-01T06:46:00.083Z,100.0
2017-09-01T06:47:01.465Z,100.0
2017-09-01T06:48:02.968Z,100.0
2017-09-01T06:49:04.337Z,100.0
2017-09-01T06:50:05.721Z,100.0
2017-09-01T06:51:07.101Z,100.0
2017-09-01T06:52:08.497Z,100.0
2017-09-01T06:53:09.961Z,100.0
2017-09-01T06:54:11.388Z,100.0
2017-09-01T06:55:12.762Z,100.0
2017-09-01T06:56:14.163Z,100.0
2017-09-01T06:57:15.547Z,100.0
2017-09-01T06:58:16.942Z,100.0
2017-09-01T06:59:18.318Z,100.0
2017-09-01T07:00:19.723Z,100.0
2017-09-01T07:01:21.105Z,100.0
2017-09-01T07:02:22.504Z,100.0
2017-09-01T07:03:23.895Z,100.0
2017-09-01T07:04:25.407Z,100.0
2017-09-01T07:05:26.788Z,100.0
2017-09-01T07:06:28.273Z,100.0
2017-09-01T07:07:29.648Z,100.0
2017-09-01T07:08:31.190Z,100.0
2017-09-01T07:09:32.578Z,100.0
2017-09-01T07:10:34.046Z,100.0
2017-09-01T07:11:35.499Z,100.0
2017-09-01T07:12:36.909Z,100.0
2017-09-01T07:13:38.291Z,100.0
2017-09-01T07:14:39.789Z,100.0
2017-09-01T07:15:41.177Z,100.0
2017-09-01T07:16:42.572Z,100.0
2017-09-01T07:17:43.960Z,100.0
2017-09-01T07:18:45.356Z,100.0
2017-09-01T07:19:46.744Z,100.0
2017-09-01T07:20:48.133Z,100.0
2017-09-01T07:21:49.549Z,100.0
2017-09-01T07:22:51.071Z,100.0
2017-09-01T07:23:52.443Z,100.0
2017-09-01T07:24:53.898Z,100.0
2017-09-01T07:25:55.390Z,100.0
2017-09-01T07:26:56.878Z,100.0
2017-09-01T07:27:58.270Z,100.0
2017-09-01T07:28:59.763Z,100.0
2017-09-01T07:30:01.141Z,100.0
2017-09-01T07:31:02.540Z,100.0
2017-09-01T07:32:03.922Z,100.0
2017-09-01T07:33:05.322Z,100.0
2017-09-01T07:34:06.715Z,100.0
2017-09-01T07:35:08.202Z,100.0
2017-09-01T07:36:09.584Z,100.0
2017-09-01T07:37:10.984Z,100.0
2017-09-01T07:38:12.369Z,100.0
2017-09-01T07:39:13.770Z,100.0
2017-09-01T07:40:15.193Z,100.0
2017-09-01T07:41:16.658Z,100.0
2017-09-01T07:42:18.041Z,100.0
2017-09-01T07:43:19.532Z,100.0
2017-09-01T07:44:20.919Z,100.0
2017-09-01T07:45:22.410Z,100.0
2017-09-01T07:46:23.827Z,100.0
2017-09-01T07:47:25.293Z,100.0
2017-09-01T07:48:26.694Z,100.0
2017-09-01T07:49:28.190Z,100.0
2017-09-01T07:50:29.567Z,100.0
2017-09-01T07:51:31.057Z,100.0
2017-09-01T07:52:32.576Z,100.0
2017-09-01T07:53:34.131Z,100.0
2017-09-01T07:54:35.569Z,100.0
2017-09-01T07:55:37.033Z,100.0
2017-09-01T07:56:38.409Z,100.0
2017-09-01T07:57:39.804Z,100.0
2017-09-01T07:58:41.184Z,100.0
2017-09-01T07:59:42.625Z,100.0
2017-09-01T08:00:43.996Z,100.0
2017-09-01T08:01:45.466Z,100.0
2017-09-01T08:02:46.847Z,100.0
2017-09-01T08:03:48.249Z,99.8
2017-09-01T08:04:49.626Z,100.0
2017-09-01T08:05:51.028Z,98.9
2017-09-01T08:06:52.409Z,97.7
2017-09-01T08:07:53.885Z,95.6
2017-09-01T08:08:55.231Z,95.9
2017-09-01T08:09:56.908Z,95.1
2017-09-01T08:10:58.284Z,95.7
2017-09-01T08:11:59.778Z,94.1
2017-09-01T08:13:01.268Z,95.9
2017-09-01T08:14:02.786Z,96.1
2017-09-01T08:15:04.180Z,96.5
2017-09-01T08:16:05.647Z,93.8
2017-09-01T08:17:07.038Z,96.4
2017-09-01T08:18:08.538Z,97.2
2017-09-01T08:19:09.919Z,96.5
2017-09-01T08:20:11.404Z,92.2
2017-09-01T08:21:12.783Z,91.5
2017-09-01T08:22:14.197Z,91.2
2017-09-01T08:23:15.581Z,90.4
2017-09-01T08:24:17.065Z,89.4
2017-09-01T08:25:18.447Z,89.9
2017-09-01T08:26:19.953Z,89.0
2017-09-01T08:27:21.332Z,87.2
2017-09-01T08:28:22.850Z,86.9
2017-09-01T08:29:24.251Z,86.8
2017-09-01T08:30:25.734Z,85.7
2017-09-01T08:31:27.316Z,85.6
2017-09-01T08:32:28.797Z,86.9
2017-09-01T08:33:30.180Z,86.8
2017-09-01T08:34:31.578Z,86.0
2017-09-01T08:35:32.959Z,85.4
2017-09-01T08:36:34.457Z,84.9
2017-09-01T08:37:35.850Z,84.9
2017-09-01T08:38:37.337Z,85.9
2017-09-01T08:39:38.730Z,85.2
2017-09-01T08:40:40.223Z,85.3
2017-09-01T08:41:41.646Z,84.7
2017-09-01T08:42:43.104Z,85.9
2017-09-01T08:43:44.502Z,85.8
2017-09-01T08:44:45.989Z,85.8
2017-09-01T08:45:47.386Z,85.7
2017-09-01T08:46:48.882Z,85.7
2017-09-01T08:47:50.391Z,85.1
2017-09-01T08:48:51.863Z,84.3
2017-09-01T08:49:53.325Z,85.1
2017-09-01T08:50:54.736Z,84.8
2017-09-01T08:51:56.132Z,85.9
2017-09-01T08:52:57.639Z,85.5
2017-09-01T08:53:59.020Z,85.7
2017-09-01T08:55:00.499Z,85.8
2017-09-01T08:56:01.892Z,85.7
2017-09-01T08:57:03.383Z,85.6
2017-09-01T08:58:04.761Z,85.5
2017-09-01T08:59:06.172Z,85.8
2017-09-01T09:00:07.575Z,85.6
2017-09-01T09:01:09.045Z,86.6
2017-09-01T09:02:10.432Z,85.9
2017-09-01T09:03:11.926Z,85.8
2017-09-01T09:04:13.305Z,86.3
2017-09-01T09:05:14.706Z,85.6
2017-09-01T09:06:16.089Z,85.8
2017-09-01T09:07:17.486Z,86.1
2017-09-01T09:08:18.914Z,86.5
2017-09-01T09:09:20.367Z,85.5
2017-09-01T09:10:21.745Z,85.2
2017-09-01T09:11:23.172Z,85.9
2017-09-01T09:12:24.552Z,85.9
2017-09-01T09:13:26.413Z,85.3
2017-09-01T09:14:27.752Z,85.0
2017-09-01T09:15:29.225Z,85.1
2017-09-01T09:16:30.602Z,84.8
2017-09-01T09:17:31.995Z,84.9
2017-09-01T09:18:33.384Z,83.5
2017-09-01T09:19:34.878Z,80.8
2017-09-01T09:20:36.471Z,81.6
2017-09-01T09:21:37.966Z,80.8
2017-09-01T09:22:39.351Z,79.9
2017-09-01T09:23:40.782Z,80.3
2017-09-01T09:24:42.166Z,80.3
2017-09-01T09:25:43.637Z,79.5
2017-09-01T09:26:45.106Z,78.9
2017-09-01T09:27:46.514Z,79.2
2017-09-01T09:28:47.896Z,79.4
2017-09-01T09:29:49.391Z,79.5
2017-09-01T09:30:50.777Z,80.9
2017-09-01T09:31:52.240Z,78.3
2017-09-01T09:32:53.631Z,78.2
2017-09-01T09:33:55.054Z,78.4
2017-09-01T09:34:56.441Z,77.9
2017-09-01T09:35:57.978Z,77.8
2017-09-01T09:36:59.358Z,75.7
2017-09-01T09:38:00.817Z,76.7
2017-09-01T09:39:02.343Z,77.9
2017-09-01T09:40:03.839Z,77.6
2017-09-01T09:41:05.222Z,77.8
2017-09-01T09:42:06.698Z,77.5
2017-09-01T09:43:08.082Z,76.4
2017-09-01T09:44:09.565Z,75.8
2017-09-01T09:45:10.945Z,75.9
2017-09-01T09:46:12.357Z,76.9
2017-09-01T09:47:14.006Z,77.8
2017-09-01T09:48:15.433Z,78.0
2017-09-01T09:49:16.870Z,77.3
2017-09-01T09:50:18.305Z,77.8
2017-09-01T09:51:19.736Z,77.6
2017-09-01T09:52:21.193Z,76.6
2017-09-01T09:53:22.582Z,76.0
2017-09-01T09:54:24.113Z,76.7
2017-09-01T09:55:25.582Z,76.2
2017-09-01T09:56:27.064Z,76.1
2017-09-01T09:57:28.474Z,75.5
2017-09-01T09:58:29.943Z,75.2
2017-09-01T09:59:31.549Z,75.4
2017-09-01T10:00:33.056Z,75.8
2017-09-01T10:01:34.475Z,75.2
2017-09-01T10:02:35.956Z,76.4
2017-09-01T10:03:37.345Z,74.2
2017-09-01T10:04:38.829Z,75.9
2017-09-01T10:05:40.219Z,77.0
2017-09-01T10:06:41.678Z,75.0
2017-09-01T10:07:43.148Z,74.3
2017-09-01T10:08:44.662Z,73.7
2017-09-01T10:09:46.086Z,75.3
2017-09-01T10:10:47.603Z,73.8
2017-09-01T10:11:49.618Z,74.8
2017-09-01T10:12:51.039Z,75.9
2017-09-01T10:13:52.426Z,74.2
2017-09-01T10:14:53.928Z,72.6
2017-09-01T10:15:55.362Z,72.9
2017-09-01T10:16:56.806Z,70.6
2017-09-01T10:17:58.192Z,68.9
2017-09-01T10:18:59.699Z,67.8
2017-09-01T10:20:01.121Z,67.6
2017-09-01T10:21:02.573Z,66.2
2017-09-01T10:22:04.016Z,65.4
2017-09-01T10:23:05.450Z,64.0
2017-09-01T10:24:06.836Z,62.9
2017-09-01T10:25:08.334Z,62.5
2017-09-01T10:26:09.984Z,63.1
2017-09-01T10:27:11.430Z,63.3
2017-09-01T10:28:12.810Z,63.2
2017-09-01T10:29:14.348Z,65.6
2017-09-01T10:30:15.735Z,63.6
2017-09-01T10:31:17.185Z,62.4
2017-09-01T10:32:18.700Z,63.3
2017-09-01T10:33:20.179Z,64.8
2017-09-01T10:34:21.570Z,64.5
2017-09-01T10:35:23.133Z,66.2
2017-09-01T10:36:24.495Z,66.8
2017-09-01T10:37:25.937Z,62.0
2017-09-01T10:38:27.323Z,61.2
2017-09-01T10:39:28.818Z,59.2
2017-09-01T10:40:30.220Z,60.6
2017-09-01T10:41:31.706Z,57.9
2017-09-01T10:42:33.111Z,57.4
2017-09-01T10:43:34.580Z,58.3
2017-09-01T10:44:35.982Z,57.0
2017-09-01T10:45:37.453Z,57.3
2017-09-01T10:46:38.861Z,59.9
2017-09-01T10:47:40.342Z,56.2
2017-09-01T10:48:41.732Z,56.6
2017-09-01T10:49:43.225Z,58.0
2017-09-01T10:50:44.636Z,56.8
2017-09-01T10:51:46.108Z,54.2
2017-09-01T10:52:47.513Z,53.4
2017-09-01T10:53:49.027Z,55.9
2017-09-01T10:54:50.424Z,48.7
2017-09-01T10:55:51.871Z,47.7
2017-09-01T10:56:53.263Z,47.1
2017-09-01T10:57:54.880Z,48.0
2017-09-01T10:58:56.274Z,47.7
2017-09-01T10:59:57.738Z,48.2
2017-09-01T11:00:59.138Z,49.6
2017-09-01T11:02:00.635Z,50.0
2017-09-01T11:03:02.029Z,48.2
2017-09-01T11:04:03.563Z,50.3
2017-09-01T11:05:05.026Z,49.3
2017-09-01T11:06:06.698Z,49.5
2017-09-01T11:07:07.946Z,49.5
2017-09-01T11:08:09.368Z,48.2
2017-09-01T11:09:10.815Z,49.8
2017-09-01T11:10:12.252Z,52.4
2017-09-01T11:11:13.642Z,51.5
2017-09-01T11:12:15.131Z,50.4
2017-09-01T11:13:16.554Z,47.7
2017-09-01T11:14:18.041Z,45.4
2017-09-01T11:15:19.436Z,46.4
2017-09-01T11:16:20.892Z,46.1
2017-09-01T11:17:22.357Z,48.6
2017-09-01T11:18:23.955Z,47.4
2017-09-01T11:19:25.320Z,48.0
2017-09-01T11:20:26.806Z,45.5
2017-09-01T11:21:28.222Z,45.7
2017-09-01T11:22:29.643Z,45.1
2017-09-01T11:23:31.100Z,45.2
2017-09-01T11:24:32.530Z,46.7
2017-09-01T11:25:33.939Z,46.2
2017-09-01T11:26:35.408Z,46.7
2017-09-01T11:27:36.795Z,46.8
2017-09-01T11:28:38.323Z,48.3
2017-09-01T11:29:39.847Z,49.4
2017-09-01T11:30:41.539Z,52.5
2017-09-01T11:31:42.885Z,48.4
2017-09-01T11:32:44.407Z,48.4
2017-09-01T11:33:45.969Z,48.3
2017-09-01T11:34:47.452Z,46.1
2017-09-01T11:35:48.842Z,47.5
2017-09-01T11:36:50.392Z,45.5
2017-09-01T11:37:51.757Z,45.6
2017-09-01T11:38:53.209Z,47.0
2017-09-01T11:39:54.601Z,49.7
2017-09-01T11:40:56.101Z,48.4
2017-09-01T11:41:57.491Z,46.9
2017-09-01T11:42:59.909Z,47.5
2017-09-01T11:44:01.298Z,48.1
2017-09-01T11:45:02.783Z,48.1
2017-09-01T11:46:04.171Z,48.4
2017-09-01T11:47:05.661Z,46.7
2017-09-01T11:48:07.110Z,46.5
2017-09-01T11:49:08.543Z,48.3
2017-09-01T11:50:09.931Z,49.3
2017-09-01T11:51:11.428Z,43.9
2017-09-01T11:52:12.818Z,43.9
2017-09-01T11:53:14.304Z,47.0
2017-09-01T11:54:15.694Z,47.2
2017-09-01T11:55:17.329Z,47.4
2017-09-01T11:56:18.923Z,47.4
2017-09-01T11:57:20.381Z,47.8
2017-09-01T11:58:21.804Z,46.0
2017-09-01T11:59:23.494Z,45.3
2017-09-01T12:00:24.908Z,46.6
2017-09-01T12:01:26.654Z,46.7
2017-09-01T12:02:28.056Z,47.7
2017-09-01T12:03:29.614Z,47.4
2017-09-01T12:04:31.162Z,48.0
2017-09-01T12:05:32.623Z,48.5
2017-09-01T12:06:34.022Z,47.8
2017-09-01T12:07:35.499Z,48.5
2017-09-01T12:08:36.896Z,48.8
2017-09-01T12:09:38.391Z,49.9
2017-09-01T12:10:39.777Z,48.6
2017-09-01T12:11:41.283Z,48.0
2017-09-01T12:12:42.666Z,49.1
2017-09-01T12:13:44.301Z,48.1
2017-09-01T12:14:45.687Z,42.8
2017-09-01T12:15:47.161Z,41.9
2017-09-01T12:16:48.602Z,45.0
2017-09-01T12:17:50.020Z,42.3
2017-09-01T12:18:51.406Z,42.8
2017-09-01T12:19:53.048Z,41.6
2017-09-01T12:20:54.416Z,43.5
2017-09-01T12:21:55.890Z,42.7
2017-09-01T12:22:57.277Z,42.0
2017-09-01T12:23:58.787Z,42.7
2017-09-01T12:25:00.170Z,43.8
2017-09-01T12:26:01.649Z,44.1
2017-09-01T12:27:03.039Z,43.0
2017-09-01T12:28:04.535Z,44.2
2017-09-01T12:29:05.931Z,43.2
2017-09-01T12:30:07.414Z,42.6
2017-09-01T12:31:08.894Z,42.9
2017-09-01T12:32:10.312Z,42.9
2017-09-01T12:33:11.715Z,42.5
2017-09-01T12:34:13.178Z,40.7
2017-09-01T12:35:14.565Z,40.9
2017-09-01T12:36:16.325Z,41.0
2017-09-01T12:37:17.710Z,41.7
2017-09-01T12:38:19.149Z,43.3
2017-09-01T12:39:20.532Z,42.9
2017-09-01T12:40:22.031Z,43.4
2017-09-01T12:41:23.420Z,43.7
2017-09-01T12:42:24.900Z,45.3
2017-09-01T12:43:26.299Z,45.3
2017-09-01T12:44:27.793Z,45.2
2017-09-01T12:45:29.207Z,47.1
2017-09-01T12:46:30.676Z,46.3
2017-09-01T12:47:32.060Z,44.3
2017-09-01T12:48:33.558Z,46.1
2017-09-01T12:49:34.947Z,41.5
2017-09-01T12:50:36.465Z,41.1
2017-09-01T12:51:37.859Z,41.7
2017-09-01T12:52:39.323Z,41.7
2017-09-01T12:53:40.771Z,44.8
2017-09-01T12:54:42.203Z,42.5
2017-09-01T12:55:43.588Z,44.0
2017-09-01T12:56:45.097Z,42.0
2017-09-01T12:57:46.485Z,39.3
2017-09-01T12:58:47.968Z,37.0
2017-09-01T12:59:49.453Z,37.0
2017-09-01T13:00:50.951Z,36.0
2017-09-01T13:01:52.476Z,35.8
2017-09-01T13:02:54.142Z,38.7
2017-09-01T13:03:55.529Z,36.9
2017-09-01T13:04:57.020Z,38.6
2017-09-01T13:05:58.410Z,39.1
2017-09-01T13:06:59.939Z,39.8
2017-09-01T13:08:01.379Z,38.1
2017-09-01T13:09:02.786Z,36.6
2017-09-01T13:10:04.321Z,37.0
2017-09-01T13:11:05.771Z,36.1
2017-09-01T13:12:07.155Z,36.7
2017-09-01T13:13:08.701Z,37.4
2017-09-01T13:14:10.085Z,38.8
2017-09-01T13:15:11.564Z,40.7
2017-09-01T13:16:12.930Z,39.6
2017-09-01T13:17:14.416Z,39.6
2017-09-01T13:18:15.864Z,38.8
2017-09-01T13:19:17.302Z,37.5
2017-09-01T13:20:18.698Z,36.7
2017-09-01T13:21:20.201Z,38.8